SBU255 TFFJ-TFFG
Flight info
| Callsign | SBU255 |
|---|---|
| Flight time | 0h 7m |
| Altitude | 3000 |
| Route | PJM |
| Aircraft | C208/L-SDFGRY/C |
Departure
| Time | 2026-04-21 13:26 |
|---|---|
| Airport | St. Jean Airport (TFFJ) |
Arrival
| Time | 2026-04-21 13:33 |
|---|---|
| Airport | Grand Case-l'Espérance Airport (TFFG) |
| Time | Latitude | Longitude | Altitude | Speed | Heading |
|---|---|---|---|---|---|
| 2026-04-21 13:13 | 17.90372 | -62.84503 | 40 ft | 0 kts | 89° |
| 2026-04-21 13:23 | 17.90383 | -62.84504 | 40 ft | 6 kts | 316° |
| 2026-04-21 13:23 | 17.90391 | -62.84546 | 44 ft | 7 kts | 269° |
| 2026-04-21 13:23 | 17.90389 | -62.84604 | 49 ft | 7 kts | 270° |
| 2026-04-21 13:23 | 17.90401 | -62.84631 | 51 ft | 2 kts | 301° |
| 2026-04-21 13:24 | 17.90408 | -62.84642 | 49 ft | 0 kts | 309° |
| 2026-04-21 13:24 | 17.90410 | -62.84645 | 52 ft | 3 kts | 312° |
| 2026-04-21 13:24 | 17.90431 | -62.84652 | 51 ft | 3 kts | 32° |
| 2026-04-21 13:24 | 17.90434 | -62.84642 | 47 ft | 0 kts | 90° |
| 2026-04-21 13:25 | 17.90435 | -62.84511 | 41 ft | 44 kts | 89° |
| 2026-04-21 13:25 | 17.90439 | -62.84075 | 156 ft | 62 kts | 82° |
| 2026-04-21 13:25 | 17.90576 | -62.83633 | 348 ft | 70 kts | 44° |
| 2026-04-21 13:26 | 17.91040 | -62.83444 | 610 ft | 77 kts | 11° |
| 2026-04-21 13:26 | 17.91594 | -62.83492 | 825 ft | 84 kts | 353° |
| 2026-04-21 13:26 | 17.91974 | -62.83635 | 950 ft | 93 kts | 338° |
| 2026-04-21 13:26 | 17.92495 | -62.84128 | 1125 ft | 109 kts | 318° |
| 2026-04-21 13:27 | 17.93040 | -62.84754 | 1298 ft | 121 kts | 317° |
| 2026-04-21 13:27 | 17.93634 | -62.85430 | 1519 ft | 133 kts | 317° |
| 2026-04-21 13:27 | 17.94295 | -62.86190 | 1566 ft | 145 kts | 315° |
| 2026-04-21 13:27 | 17.94975 | -62.87002 | 1595 ft | 151 kts | 314° |
| 2026-04-21 13:28 | 17.95689 | -62.87827 | 1633 ft | 155 kts | 316° |
| 2026-04-21 13:28 | 17.96437 | -62.88661 | 1656 ft | 160 kts | 317° |
| 2026-04-21 13:28 | 17.97221 | -62.89513 | 1641 ft | 165 kts | 317° |
| 2026-04-21 13:28 | 17.98033 | -62.90383 | 1631 ft | 168 kts | 317° |
| 2026-04-21 13:29 | 17.98849 | -62.91265 | 1596 ft | 170 kts | 317° |
| 2026-04-21 13:29 | 17.99674 | -62.92160 | 1584 ft | 170 kts | 317° |
| 2026-04-21 13:29 | 18.00754 | -62.93348 | 1575 ft | 170 kts | 317° |
| 2026-04-21 13:29 | 18.01303 | -62.93964 | 1552 ft | 171 kts | 316° |
| 2026-04-21 13:30 | 18.02115 | -62.94873 | 1548 ft | 170 kts | 317° |
| 2026-04-21 13:30 | 18.02932 | -62.95770 | 1550 ft | 169 kts | 318° |
| 2026-04-21 13:30 | 18.03742 | -62.96658 | 1552 ft | 168 kts | 317° |
| 2026-04-21 13:30 | 18.04548 | -62.97548 | 1536 ft | 168 kts | 318° |
| 2026-04-21 13:31 | 18.05369 | -62.98421 | 1506 ft | 169 kts | 320° |
| 2026-04-21 13:31 | 18.06171 | -62.99194 | 1324 ft | 145 kts | 323° |
| 2026-04-21 13:31 | 18.06925 | -62.99828 | 1119 ft | 132 kts | 326° |
| 2026-04-21 13:31 | 18.07633 | -63.00396 | 956 ft | 124 kts | 327° |
| 2026-04-21 13:32 | 18.08263 | -63.00941 | 803 ft | 114 kts | 323° |
| 2026-04-21 13:32 | 18.08792 | -63.01488 | 659 ft | 100 kts | 317° |
| 2026-04-21 13:32 | 18.09157 | -63.02048 | 504 ft | 87 kts | 304° |
| 2026-04-21 13:32 | 18.09394 | -63.02629 | 385 ft | 87 kts | 291° |
| 2026-04-21 13:33 | 18.09568 | -63.03222 | 264 ft | 84 kts | 286° |
| 2026-04-21 13:33 | 18.09737 | -63.03806 | 135 ft | 83 kts | 287° |
| 2026-04-21 13:33 | 18.09904 | -63.04388 | 16 ft | 82 kts | 287° |
| 2026-04-21 13:33 | 18.10036 | -63.04837 | 12 ft | 27 kts | 286° |
| 2026-04-21 13:34 | 18.10103 | -63.04874 | 16 ft | 9 kts | 17° |
| 2026-04-21 13:34 | 18.10115 | -63.04870 | 16 ft | 0 kts | 18° |
| 2026-04-21 13:34 | 18.10121 | -63.04849 | 17 ft | 4 kts | 103° |
| 2026-04-21 13:34 | 18.10136 | -63.04828 | 17 ft | 5 kts | 14° |
| 2026-04-21 13:35 | 18.10153 | -63.04818 | 17 ft | 3 kts | 74° |
| 2026-04-21 13:35 | 18.10150 | -63.04804 | 17 ft | 0 kts | 105° |